createdAt,value
2019-02-22T00:01:07.646Z,6.46
2019-02-22T00:04:12.966Z,6.49
2019-02-22T00:07:18.132Z,6.21
2019-02-22T00:10:23.488Z,6.27
2019-02-22T00:13:28.694Z,6.19
2019-02-22T00:16:33.835Z,6.17
2019-02-22T00:19:38.996Z,6.21
2019-02-22T00:22:44.086Z,6.23
2019-02-22T00:25:49.229Z,6.41
2019-02-22T00:28:54.396Z,6.35
2019-02-22T00:31:59.638Z,6.40
2019-02-22T00:35:04.957Z,6.65
2019-02-22T00:38:10.186Z,6.78
2019-02-22T00:41:16.268Z,7.18
2019-02-22T00:44:22.876Z,7.54
2019-02-22T00:47:28.069Z,7.46
2019-02-22T00:50:33.212Z,7.59
2019-02-22T00:53:38.497Z,7.64
2019-02-22T00:56:43.609Z,7.50
2019-02-22T00:59:48.756Z,7.75
2019-02-22T01:02:53.879Z,7.70
2019-02-22T01:05:59.045Z,7.99
2019-02-22T01:09:04.895Z,8.13
2019-02-22T01:12:11.637Z,8.42
2019-02-22T01:15:16.792Z,8.83
2019-02-22T01:18:21.986Z,9.37
2019-02-22T01:21:27.271Z,9.55
2019-02-22T01:24:32.479Z,9.47
2019-02-22T01:27:38.676Z,9.86
2019-02-22T01:30:43.843Z,9.84
2019-02-22T01:33:50.118Z,9.93
2019-02-22T01:36:55.190Z,9.93
2019-02-22T01:40:00.397Z,10.04
2019-02-22T01:43:05.553Z,10.04
2019-02-22T01:46:10.706Z,9.95
2019-02-22T01:49:15.872Z,9.89
2019-02-22T01:52:21.013Z,9.89
2019-02-22T01:55:26.212Z,10.25
2019-02-22T01:58:31.457Z,10.01
2019-02-22T02:01:36.610Z,9.88
2019-02-22T02:04:41.953Z,9.86
2019-02-22T02:07:47.124Z,10.06
2019-02-22T02:10:54.478Z,9.94
2019-02-22T02:14:00.805Z,9.91
2019-02-22T02:17:06.073Z,9.88
2019-02-22T02:20:11.666Z,9.80
2019-02-22T02:23:16.808Z,9.83
2019-02-22T02:26:21.920Z,9.92
2019-02-22T02:29:27.043Z,9.93
2019-02-22T02:32:32.206Z,10.05
2019-02-22T02:35:37.374Z,9.86
2019-02-22T02:38:42.594Z,10.04
2019-02-22T02:41:47.814Z,10.07
2019-02-22T02:44:53.035Z,10.07
2019-02-22T02:47:58.263Z,10.03
2019-02-22T02:51:03.445Z,9.78
2019-02-22T02:54:08.621Z,9.85
2019-02-22T02:57:13.712Z,9.95
2019-02-22T03:00:18.907Z,9.76
2019-02-22T03:03:24.071Z,9.74
2019-02-22T03:06:43.713Z,9.62
2019-02-22T03:09:48.917Z,9.64
2019-02-22T03:12:55.124Z,9.72
2019-02-22T03:16:00.183Z,9.88
2019-02-22T03:19:05.293Z,9.95
2019-02-22T03:22:10.504Z,10.07
2019-02-22T03:25:15.681Z,9.92
2019-02-22T03:28:21.767Z,9.99
2019-02-22T03:31:26.978Z,9.89
2019-02-22T03:34:32.126Z,10.11
2019-02-22T03:37:37.267Z,10.03
2019-02-22T03:40:42.412Z,9.97
2019-02-22T03:43:48.611Z,9.95
2019-02-22T03:46:53.772Z,9.98
2019-02-22T03:49:58.907Z,9.85
2019-02-22T03:53:22.992Z,9.78
2019-02-22T03:56:28.110Z,9.63
2019-02-22T03:59:33.352Z,9.62
2019-02-22T04:02:38.529Z,9.72
2019-02-22T04:05:43.639Z,9.67
2019-02-22T04:08:48.802Z,9.57
2019-02-22T04:11:53.891Z,9.41
2019-02-22T04:14:59.135Z,9.52
2019-02-22T04:18:04.273Z,9.62
2019-02-22T04:21:09.512Z,9.58
2019-02-22T04:24:14.662Z,9.56
2019-02-22T04:27:19.960Z,9.56
2019-02-22T04:30:25.109Z,9.35
2019-02-22T04:33:30.317Z,9.52
2019-02-22T04:36:35.575Z,9.54
2019-02-22T04:39:40.792Z,9.62
2019-02-22T04:42:45.893Z,9.38
2019-02-22T04:45:51.014Z,9.22
2019-02-22T04:48:56.221Z,9.42
2019-02-22T04:52:01.341Z,9.39
2019-02-22T04:55:06.600Z,9.15
2019-02-22T04:58:11.713Z,9.22
2019-02-22T05:01:16.917Z,9.29
2019-02-22T05:04:22.121Z,9.25
2019-02-22T05:07:27.313Z,9.10
2019-02-22T05:10:32.431Z,9.26
2019-02-22T05:13:37.629Z,9.47
2019-02-22T05:16:42.817Z,9.59
2019-02-22T05:19:47.954Z,9.36
2019-02-22T05:23:03.446Z,9.48
2019-02-22T05:25:59.927Z,9.21
2019-02-22T05:29:05.076Z,9.32
2019-02-22T05:32:10.302Z,9.49
2019-02-22T05:35:15.491Z,9.23
2019-02-22T05:38:20.600Z,9.08
2019-02-22T05:41:25.742Z,9.10
2019-02-22T05:44:30.986Z,8.97
2019-02-22T05:47:36.124Z,8.89
2019-02-22T05:50:41.417Z,8.78
2019-02-22T05:53:46.556Z,8.65
2019-02-22T05:56:54.696Z,8.60
2019-02-22T05:59:58.608Z,8.77
2019-02-22T06:03:03.710Z,8.68
2019-02-22T06:06:08.844Z,8.63
2019-02-22T06:09:14.088Z,8.62
2019-02-22T06:12:19.239Z,8.53
2019-02-22T06:15:24.543Z,8.48
2019-02-22T06:18:29.655Z,8.70
2019-02-22T06:21:34.894Z,8.52
2019-02-22T06:24:40.003Z,8.53
2019-02-22T06:27:46.193Z,8.46
2019-02-22T06:30:51.374Z,8.58
2019-02-22T06:33:56.687Z,8.73
2019-02-22T06:37:02.471Z,8.59
2019-02-22T06:40:08.793Z,8.55
2019-02-22T06:43:14.010Z,8.62
2019-02-22T06:46:19.294Z,8.71
2019-02-22T06:49:24.568Z,8.94
2019-02-22T06:52:29.910Z,9.14
2019-02-22T06:55:35.067Z,8.97
2019-02-22T06:58:40.346Z,9.25
2019-02-22T07:01:45.534Z,9.08
2019-02-22T07:04:50.686Z,9.06
2019-02-22T07:07:56.898Z,9.22
2019-02-22T07:11:24.955Z,9.28
2019-02-22T07:14:30.114Z,9.20
2019-02-22T07:17:35.226Z,9.46
2019-02-22T07:20:40.366Z,9.55
2019-02-22T07:23:45.622Z,9.59
2019-02-22T07:26:50.806Z,9.66
2019-02-22T07:29:56.034Z,9.78
2019-02-22T07:33:01.192Z,9.62
2019-02-22T07:36:06.417Z,9.77
2019-02-22T07:39:11.618Z,10.00
2019-02-22T07:42:16.840Z,9.97
2019-02-22T07:45:21.990Z,10.00
2019-02-22T07:48:27.174Z,10.19
2019-02-22T07:51:32.330Z,9.97
2019-02-22T07:54:37.548Z,9.87
2019-02-22T07:57:42.696Z,9.99
2019-02-22T08:00:48.021Z,10.07
2019-02-22T08:03:54.232Z,10.07
2019-02-22T08:06:59.473Z,10.16
2019-02-22T08:10:05.155Z,10.14
2019-02-22T08:13:19.257Z,10.15
2019-02-22T08:16:17.193Z,10.41
2019-02-22T08:19:22.411Z,10.33
2019-02-22T08:22:27.578Z,10.58
2019-02-22T08:25:32.831Z,10.68
2019-02-22T08:28:38.060Z,10.65
2019-02-22T08:31:43.242Z,10.80
2019-02-22T08:34:48.365Z,10.84
2019-02-22T08:37:53.569Z,11.08
2019-02-22T08:40:58.706Z,11.04
2019-02-22T08:44:03.869Z,10.93
2019-02-22T08:47:09.077Z,11.15
2019-02-22T08:50:14.578Z,11.19
2019-02-22T08:53:19.922Z,11.21
2019-02-22T08:56:25.108Z,11.35
2019-02-22T08:59:30.513Z,11.43
2019-02-22T09:02:35.682Z,11.22
2019-02-22T09:05:40.885Z,11.16
2019-02-22T09:08:46.310Z,11.30
2019-02-22T09:11:51.472Z,11.38
2019-02-22T09:14:56.771Z,11.38
2019-02-22T09:18:01.890Z,11.65
2019-02-22T09:21:07.137Z,11.49
2019-02-22T09:24:12.289Z,11.63
2019-02-22T09:27:17.348Z,11.71
2019-02-22T09:30:22.519Z,11.66
2019-02-22T09:33:27.681Z,11.96
2019-02-22T09:36:32.912Z,11.91
2019-02-22T09:39:38.323Z,11.96
2019-02-22T09:42:43.514Z,11.83
2019-02-22T09:45:48.729Z,11.61
2019-02-22T09:48:53.851Z,11.81
2019-02-22T09:51:58.948Z,11.82
2019-02-22T09:55:04.170Z,11.62
2019-02-22T09:58:11.129Z,11.64
2019-02-22T10:01:16.295Z,11.89
2019-02-22T10:04:21.459Z,11.93
2019-02-22T10:07:26.618Z,11.82
2019-02-22T10:10:31.767Z,11.55
2019-02-22T10:13:37.027Z,11.51
2019-02-22T10:16:42.275Z,11.27
2019-02-22T10:19:47.446Z,11.42
2019-02-22T10:22:52.638Z,11.44
2019-02-22T10:25:57.780Z,11.53
2019-02-22T10:29:03.012Z,11.58
2019-02-22T10:32:08.180Z,11.74
2019-02-22T10:35:13.459Z,11.76
2019-02-22T10:38:18.780Z,11.88
2019-02-22T10:41:23.892Z,11.97
2019-02-22T10:44:29.037Z,11.97
2019-02-22T10:47:34.138Z,12.20
2019-02-22T10:50:39.347Z,12.23
2019-02-22T10:53:44.439Z,12.12
2019-02-22T10:56:49.632Z,12.24
2019-02-22T10:59:54.734Z,12.31
2019-02-22T11:02:59.922Z,12.58
2019-02-22T11:06:05.243Z,12.37
2019-02-22T11:09:10.452Z,12.47
2019-02-22T11:12:15.778Z,12.66
2019-02-22T11:15:20.929Z,12.56
2019-02-22T11:18:26.036Z,12.57
2019-02-22T11:21:31.216Z,12.54
2019-02-22T11:24:36.365Z,12.41
2019-02-22T11:27:41.516Z,12.48
2019-02-22T11:30:47.074Z,12.57
2019-02-22T11:33:52.373Z,12.52
2019-02-22T11:36:57.593Z,12.57
2019-02-22T11:40:02.757Z,12.61
2019-02-22T11:43:07.958Z,12.44
2019-02-22T11:46:14.107Z,12.61
2019-02-22T11:49:19.260Z,12.49
2019-02-22T11:52:24.369Z,12.51
2019-02-22T11:55:29.587Z,12.75
2019-02-22T11:58:34.810Z,12.62
2019-02-22T12:01:40.004Z,12.96
2019-02-22T12:04:45.306Z,12.47
2019-02-22T12:07:50.522Z,12.68
2019-02-22T12:10:55.794Z,12.93
2019-02-22T12:14:00.996Z,13.06
2019-02-22T12:17:06.275Z,12.76
2019-02-22T12:20:11.720Z,12.59
2019-02-22T12:23:16.938Z,12.51
2019-02-22T12:26:22.111Z,12.67
2019-02-22T12:29:27.328Z,13.00
2019-02-22T12:32:32.507Z,12.82
2019-02-22T12:35:37.668Z,12.68
2019-02-22T12:38:42.899Z,13.14
2019-02-22T12:41:48.113Z,13.09
2019-02-22T12:45:02.508Z,13.21
2019-02-22T12:48:00.342Z,12.96
2019-02-22T12:51:05.511Z,13.06
2019-02-22T12:54:10.744Z,13.06
2019-02-22T12:57:15.891Z,12.85
2019-02-22T13:00:21.052Z,12.87
2019-02-22T13:03:26.547Z,12.80
2019-02-22T13:06:31.700Z,12.79
2019-02-22T13:09:37.224Z,12.55
2019-02-22T13:12:42.615Z,12.75
2019-02-22T13:15:47.967Z,12.85
2019-02-22T13:18:53.170Z,12.97
2019-02-22T13:21:58.428Z,13.23
2019-02-22T13:25:03.724Z,13.27
2019-02-22T13:28:08.887Z,12.88
2019-02-22T13:31:14.066Z,13.05
2019-02-22T13:34:19.273Z,13.02
2019-02-22T13:37:25.504Z,13.29
2019-02-22T13:40:31.753Z,13.55
2019-02-22T13:43:36.973Z,13.41
2019-02-22T13:46:42.140Z,13.29
2019-02-22T13:49:47.598Z,13.12
2019-02-22T13:52:52.731Z,12.95
2019-02-22T13:55:57.926Z,12.93
2019-02-22T13:59:03.083Z,12.78
2019-02-22T14:02:08.211Z,12.76
2019-02-22T14:05:13.468Z,12.83
2019-02-22T14:08:18.738Z,12.61
2019-02-22T14:11:23.896Z,12.70
2019-02-22T14:14:29.064Z,12.62
2019-02-22T14:17:34.239Z,12.67
2019-02-22T14:20:39.429Z,12.80
2019-02-22T14:23:44.574Z,12.79
2019-02-22T14:26:49.774Z,12.77
2019-02-22T14:29:54.894Z,12.60
2019-02-22T14:33:00.141Z,12.51
2019-02-22T14:36:05.281Z,12.55
2019-02-22T14:39:10.733Z,12.44
2019-02-22T14:42:16.071Z,12.61
2019-02-22T14:45:21.300Z,12.64
2019-02-22T14:48:26.523Z,12.57
2019-02-22T14:51:31.729Z,12.70
2019-02-22T14:54:36.949Z,12.67
2019-02-22T14:57:44.939Z,12.66
2019-02-22T15:00:49.193Z,12.39
2019-02-22T15:06:49.710Z,12.74
2019-02-22T15:09:54.824Z,12.63
2019-02-22T15:13:00.095Z,12.63
2019-02-22T15:16:29.526Z,12.51
2019-02-22T15:19:34.644Z,12.35
2019-02-22T15:22:39.782Z,12.24
2019-02-22T15:25:44.929Z,12.15
2019-02-22T15:28:50.093Z,12.33
2019-02-22T15:31:55.306Z,12.20
2019-02-22T15:35:00.492Z,12.13
2019-02-22T15:38:06.935Z,11.88
2019-02-22T15:41:12.251Z,12.03
2019-02-22T15:44:17.518Z,11.76
2019-02-22T15:47:22.671Z,11.60
2019-02-22T15:50:27.833Z,11.64
2019-02-22T15:53:33.079Z,11.68
2019-02-22T15:56:38.280Z,11.73
2019-02-22T15:59:43.514Z,11.54
2019-02-22T16:02:48.675Z,11.51
2019-02-22T16:05:53.833Z,11.33
2019-02-22T16:08:58.976Z,11.38
2019-02-22T16:12:04.048Z,11.38
2019-02-22T16:15:09.537Z,11.27
2019-02-22T16:18:14.876Z,11.22
2019-02-22T16:21:19.995Z,11.26
2019-02-22T16:24:25.129Z,11.49
2019-02-22T16:27:30.337Z,11.41
2019-02-22T16:30:37.146Z,11.44
2019-02-22T16:33:42.337Z,11.42
2019-02-22T16:36:47.489Z,11.11
2019-02-22T16:39:52.635Z,11.18
2019-02-22T16:42:57.766Z,10.97
2019-02-22T16:46:03.000Z,10.90
2019-02-22T16:49:08.098Z,10.87
2019-02-22T16:52:13.249Z,11.05
2019-02-22T16:55:18.440Z,10.93
2019-02-22T16:58:23.670Z,10.93
2019-02-22T17:01:28.978Z,10.83
2019-02-22T17:04:35.098Z,10.62
2019-02-22T17:07:40.281Z,10.55
2019-02-22T17:10:45.488Z,10.55
2019-02-22T17:13:50.781Z,10.39
2019-02-22T17:16:56.014Z,10.36
2019-02-22T17:20:01.227Z,10.20
2019-02-22T17:23:06.799Z,10.15
2019-02-22T17:26:15.232Z,10.09
2019-02-22T17:29:20.346Z,9.98
2019-02-22T17:32:26.603Z,9.97
2019-02-22T17:35:31.756Z,10.29
2019-02-22T17:38:37.009Z,10.30
2019-02-22T17:41:42.937Z,10.19
2019-02-22T17:44:48.185Z,10.29
2019-02-22T17:47:53.342Z,10.37
2019-02-22T17:50:59.634Z,10.39
2019-02-22T17:54:05.006Z,10.16
2019-02-22T17:57:10.321Z,9.94
2019-02-22T18:00:17.564Z,10.04
2019-02-22T18:03:22.805Z,9.97
2019-02-22T18:06:27.953Z,10.05
2019-02-22T18:09:33.181Z,9.86
2019-02-22T18:12:38.289Z,9.71
2019-02-22T18:15:43.535Z,9.73
2019-02-22T18:18:48.812Z,9.56
2019-02-22T18:21:54.033Z,9.52
2019-02-22T18:24:59.176Z,9.45
2019-02-22T18:28:04.331Z,9.38
2019-02-22T18:31:09.477Z,9.29
2019-02-22T18:34:14.650Z,9.63
2019-02-22T18:37:19.885Z,9.51
2019-02-22T18:40:24.975Z,9.39
2019-02-22T18:43:30.137Z,9.45
2019-02-22T18:46:35.347Z,9.42
2019-02-22T18:49:40.446Z,9.22
2019-02-22T18:52:45.592Z,9.10
2019-02-22T18:55:50.727Z,8.99
2019-02-22T18:58:56.355Z,8.79
2019-02-22T19:02:01.574Z,8.71
2019-02-22T19:05:08.607Z,8.50
2019-02-22T19:08:13.756Z,8.36
2019-02-22T19:11:19.002Z,8.33
2019-02-22T19:14:24.143Z,8.34
2019-02-22T19:17:30.618Z,8.21
2019-02-22T19:20:35.877Z,7.94
2019-02-22T19:23:41.019Z,7.93
2019-02-22T19:26:46.190Z,7.97
2019-02-22T19:29:51.365Z,7.98
2019-02-22T19:32:56.506Z,7.82
2019-02-22T19:36:01.714Z,7.86
2019-02-22T19:39:07.376Z,7.90
2019-02-22T19:42:13.128Z,7.81
2019-02-22T19:45:18.315Z,7.86
2019-02-22T19:48:23.510Z,7.86
2019-02-22T19:51:28.659Z,7.86
2019-02-22T19:54:33.759Z,7.93
2019-02-22T19:57:38.908Z,7.88
2019-02-22T20:00:44.146Z,8.08
2019-02-22T20:03:49.349Z,7.87
2019-02-22T20:06:54.592Z,7.86
2019-02-22T20:10:00.790Z,7.83
2019-02-22T20:13:07.050Z,7.61
2019-02-22T20:16:12.235Z,7.60
2019-02-22T20:19:17.465Z,7.53
2019-02-22T20:22:22.800Z,7.59
2019-02-22T20:25:27.969Z,7.65
2019-02-22T20:28:35.105Z,7.55
2019-02-22T20:31:40.070Z,7.63
2019-02-22T20:34:45.215Z,7.69
2019-02-22T20:37:53.031Z,7.49
2019-02-22T20:40:57.517Z,7.47
2019-02-22T20:44:02.783Z,7.47
2019-02-22T20:47:08.031Z,7.40
2019-02-22T20:50:13.276Z,7.33
2019-02-22T20:53:18.476Z,7.28
2019-02-22T20:56:24.023Z,7.17
2019-02-22T20:59:29.303Z,7.10
2019-02-22T21:02:34.480Z,6.97
2019-02-22T21:05:39.739Z,7.00
2019-02-22T21:08:44.935Z,7.02
2019-02-22T21:11:50.084Z,7.01
2019-02-22T21:14:55.253Z,6.89
2019-02-22T21:18:00.384Z,6.73
2019-02-22T21:21:05.488Z,6.73
2019-02-22T21:24:10.635Z,6.50
2019-02-22T21:27:15.804Z,6.56
2019-02-22T21:30:21.064Z,6.66
2019-02-22T21:33:26.234Z,6.57
2019-02-22T21:36:31.362Z,6.57
2019-02-22T21:39:36.568Z,6.62
2019-02-22T21:42:41.763Z,6.47
2019-02-22T21:45:46.941Z,6.54
2019-02-22T21:48:52.125Z,6.41
2019-02-22T21:51:57.362Z,6.40
2019-02-22T21:55:02.536Z,6.32
2019-02-22T21:58:09.009Z,6.28
2019-02-22T22:01:14.135Z,6.30
2019-02-22T22:04:19.408Z,6.30
2019-02-22T22:07:24.556Z,6.11
2019-02-22T22:10:29.786Z,6.16
2019-02-22T22:13:34.907Z,6.17
2019-02-22T22:16:40.125Z,6.05
2019-02-22T22:19:45.432Z,6.13
2019-02-22T22:22:50.587Z,6.02
2019-02-22T22:25:55.738Z,6.05
2019-02-22T22:29:00.899Z,6.08
2019-02-22T22:32:06.041Z,6.06
2019-02-22T22:35:11.414Z,6.07
2019-02-22T22:38:16.633Z,6.08
2019-02-22T22:41:21.840Z,5.87
2019-02-22T22:44:27.054Z,5.87
2019-02-22T22:47:32.243Z,5.79
2019-02-22T22:50:37.371Z,5.70
2019-02-22T22:53:42.648Z,5.67
2019-02-22T22:56:47.860Z,5.68
2019-02-22T22:59:52.991Z,5.74
2019-02-22T23:02:58.228Z,5.86
2019-02-22T23:06:03.429Z,5.62
2019-02-22T23:09:18.738Z,5.60
2019-02-22T23:12:24.175Z,5.60
2019-02-22T23:15:29.385Z,5.55
2019-02-22T23:18:36.027Z,5.52
2019-02-22T23:21:41.317Z,5.51
2019-02-22T23:24:46.531Z,5.43
2019-02-22T23:27:51.747Z,5.32
2019-02-22T23:30:57.077Z,5.34
2019-02-22T23:34:02.285Z,5.34
2019-02-22T23:37:07.421Z,5.30
2019-02-22T23:40:12.572Z,5.37
2019-02-22T23:43:17.720Z,5.42
2019-02-22T23:46:22.939Z,5.16
2019-02-22T23:49:28.083Z,5.20
2019-02-22T23:52:33.936Z,5.17
2019-02-22T23:55:39.170Z,5.13
2019-02-22T23:58:45.429Z,5.13
